Time;durP1;ratioP1;P1;durP2;ratioP2;P2;SDS_P1;SDS_P2;PMS_P1;PMS_P2;Temp;Humidity;BMP_temperature;BMP_pressure;BME280_temperature;BME280_humidity;BME280_pressure;Samples;Min_cycle;Max_cycle;Signal;HPM_P1;HPM_P2
2020/12/27 00:00:30;;;;;;;0.30;0.30;;;-0.60;99.90;;;;;;5053909;28;20204;-74
2020/12/27 00:02:55;;;;;;;0.47;0.47;;;-0.70;99.90;;;;;;5053197;28;20501;-75
2020/12/27 00:05:21;;;;;;;0.50;0.50;;;-0.80;99.90;;;;;;5053511;28;20576;-75
2020/12/27 00:07:47;;;;;;;0.30;0.30;;;-0.80;99.90;;;;;;5054681;28;20549;-75
2020/12/27 00:10:13;;;;;;;0.30;0.30;;;-0.80;99.90;;;;;;5054106;28;20172;-74
2020/12/27 00:12:39;;;;;;;0.40;0.40;;;-0.90;99.90;;;;;;5044369;28;20665;-76
2020/12/27 00:15:05;;;;;;;0.47;0.47;;;-0.80;99.90;;;;;;5039409;28;20591;-74
2020/12/27 00:17:31;;;;;;;0.40;0.40;;;-0.90;99.90;;;;;;5054083;28;20483;-75
2020/12/27 00:19:57;;;;;;;0.40;0.40;;;-0.90;99.90;;;;;;5053784;28;20209;-75
2020/12/27 00:22:23;;;;;;;0.30;0.30;;;-0.90;99.90;;;;;;5053367;28;20660;-75
2020/12/27 00:24:50;;;;;;;0.40;0.40;;;-0.80;99.90;;;;;;5053745;28;20189;-75
2020/12/27 00:27:16;;;;;;;0.30;0.30;;;-0.90;99.90;;;;;;5054131;28;20271;-74
2020/12/27 00:29:42;;;;;;;0.50;0.50;;;-0.90;99.90;;;;;;5053818;28;20173;-75
2020/12/27 00:32:08;;;;;;;0.50;0.50;;;-1.00;99.90;;;;;;5052394;28;20216;-75
2020/12/27 00:34:34;;;;;;;1.75;1.65;;;-0.90;99.90;;;;;;5032942;28;20525;-75
2020/12/27 00:37:00;;;;;;;0.40;0.40;;;-0.90;99.90;;;;;;5051663;28;20224;-76
2020/12/27 00:39:26;;;;;;;0.50;0.50;;;-0.90;99.90;;;;;;5053768;28;20223;-75
2020/12/27 00:41:57;;;;;;;0.45;0.45;;;-0.90;99.90;;;;;;5051755;28;20572;-75
2020/12/27 00:44:23;;;;;;;0.30;0.30;;;-0.90;99.90;;;;;;5052929;28;20224;-75
2020/12/27 00:46:52;;;;;;;2.47;1.57;;;-1.00;99.90;;;;;;5051962;28;20170;-76
2020/12/27 00:49:18;;;;;;;0.45;0.45;;;-0.90;99.90;;;;;;5052674;28;20173;-73
2020/12/27 00:51:44;;;;;;;0.30;0.30;;;-0.90;99.90;;;;;;5052916;28;20686;-74
2020/12/27 00:54:10;;;;;;;0.40;0.40;;;-0.90;99.90;;;;;;5051815;28;20246;-74
2020/12/27 00:56:35;;;;;;;0.50;0.50;;;-0.90;99.90;;;;;;5053374;28;20641;-75
2020/12/27 00:59:01;;;;;;;7.50;1.73;;;-1.00;99.90;;;;;;5052302;28;20644;-74
2020/12/27 01:01:27;;;;;;;0.30;0.30;;;-1.00;99.90;;;;;;5051455;28;20742;-74
2020/12/27 01:03:52;;;;;;;0.30;0.30;;;-1.00;99.90;;;;;;5052676;28;20201;-73
2020/12/27 01:06:23;;;;;;;0.40;0.40;;;-1.00;99.90;;;;;;5053065;28;20239;-76
2020/12/27 01:08:49;;;;;;;0.40;0.40;;;-0.90;99.90;;;;;;5053953;28;20162;-75
2020/12/27 01:11:14;;;;;;;0.40;0.40;;;-0.80;99.90;;;;;;5056732;28;20193;-75
2020/12/27 01:13:40;;;;;;;0.30;0.30;;;-0.80;99.90;;;;;;5052618;28;20458;-74
2020/12/27 01:16:10;;;;;;;0.30;0.30;;;-0.70;99.90;;;;;;5052005;28;20832;-75
2020/12/27 01:18:36;;;;;;;0.30;0.30;;;-0.60;99.90;;;;;;5053294;28;20166;-73
2020/12/27 01:21:02;;;;;;;0.30;0.30;;;-0.60;99.90;;;;;;5051345;28;20197;-76
2020/12/27 01:23:27;;;;;;;0.33;0.33;;;-0.50;99.90;;;;;;5050781;28;20189;-75
2020/12/27 01:25:53;;;;;;;0.30;0.30;;;-0.40;99.90;;;;;;5053353;28;20707;-74
2020/12/27 01:28:19;;;;;;;0.30;0.30;;;-0.40;99.90;;;;;;5052851;28;20176;-75
2020/12/27 01:30:45;;;;;;;0.30;0.30;;;-0.40;99.90;;;;;;5052728;28;20517;-74
2020/12/27 01:33:10;;;;;;;0.30;0.30;;;-0.50;99.90;;;;;;5052003;28;20165;-74
2020/12/27 01:35:36;;;;;;;0.73;0.73;;;-0.40;99.90;;;;;;5053060;28;20427;-75
2020/12/27 01:38:02;;;;;;;0.30;0.30;;;-0.50;99.90;;;;;;5053141;28;20252;-75
2020/12/27 01:40:28;;;;;;;1.23;1.23;;;-0.40;99.90;;;;;;5051174;28;20533;-75
2020/12/27 01:42:57;;;;;;;0.30;0.30;;;-0.40;99.90;;;;;;5052177;28;20197;-75
2020/12/27 01:45:24;;;;;;;0.30;0.30;;;-0.40;99.90;;;;;;5051907;28;20268;-74
2020/12/27 01:47:51;;;;;;;0.82;0.75;;;-0.40;99.90;;;;;;5052968;28;20181;-75
2020/12/27 01:50:17;;;;;;;0.40;0.40;;;-0.30;99.90;;;;;;5052321;28;20248;-75
2020/12/27 01:52:43;;;;;;;0.30;0.30;;;-0.40;99.90;;;;;;5047058;28;20217;-75
2020/12/27 01:55:11;;;;;;;0.40;0.40;;;-0.40;99.90;;;;;;5039250;28;20197;-75
2020/12/27 01:57:52;;;;;;;0.30;0.30;;;-0.40;99.90;;;;;;5052799;28;20439;-75
2020/12/27 02:00:18;;;;;;;0.40;0.40;;;-0.40;99.90;;;;;;5052110;28;20280;-74
2020/12/27 02:02:44;;;;;;;0.30;0.30;;;-0.40;99.90;;;;;;5047008;28;20297;-75
2020/12/27 02:05:11;;;;;;;0.60;0.60;;;-0.40;99.90;;;;;;5040009;28;20470;-76
2020/12/27 02:07:37;;;;;;;0.30;0.30;;;-0.40;99.90;;;;;;5052931;28;20165;-75
2020/12/27 02:10:03;;;;;;;0.30;0.30;;;-0.40;99.90;;;;;;5053647;28;20173;-74
2020/12/27 02:12:29;;;;;;;0.40;0.40;;;-0.30;99.90;;;;;;5055035;28;20305;-73
2020/12/27 02:14:54;;;;;;;0.40;0.40;;;-0.40;99.90;;;;;;5055255;28;20447;-75
2020/12/27 02:17:20;;;;;;;0.30;0.30;;;-0.30;99.90;;;;;;5056807;28;20165;-75
2020/12/27 02:19:46;;;;;;;0.30;0.30;;;-0.30;99.90;;;;;;5056036;28;20172;-75
2020/12/27 02:22:11;;;;;;;0.30;0.30;;;-0.30;99.90;;;;;;5056409;28;20272;-75
2020/12/27 02:24:37;;;;;;;0.30;0.30;;;-0.40;99.90;;;;;;5054559;28;20209;-74
2020/12/27 02:27:04;;;;;;;0.37;0.37;;;-0.40;99.90;;;;;;5056371;28;20177;-75
2020/12/27 02:29:32;;;;;;;0.40;0.40;;;-0.40;99.90;;;;;;5056558;28;20177;-74
2020/12/27 02:31:58;;;;;;;0.50;0.50;;;-0.50;99.90;;;;;;5055212;28;20555;-75
2020/12/27 02:34:24;;;;;;;0.30;0.30;;;-0.40;99.90;;;;;;5056379;28;20176;-74
2020/12/27 02:36:50;;;;;;;0.67;0.67;;;-0.40;99.90;;;;;;5056012;28;20180;-73
2020/12/27 02:39:19;;;;;;;0.30;0.30;;;-0.50;99.90;;;;;;5056202;28;20169;-75
2020/12/27 02:41:48;;;;;;;2.13;1.25;;;-0.50;99.90;;;;;;5053436;28;20685;-74
2020/12/27 02:44:14;;;;;;;0.40;0.40;;;-0.40;99.90;;;;;;5056106;28;20197;-74
2020/12/27 02:46:40;;;;;;;0.30;0.30;;;-0.50;99.90;;;;;;5055882;28;20600;-75
2020/12/27 02:49:05;;;;;;;0.40;0.40;;;-0.50;99.90;;;;;;5055986;28;20196;-74
2020/12/27 02:51:31;;;;;;;0.40;0.40;;;-0.50;99.90;;;;;;5054421;28;20225;-74
2020/12/27 02:53:58;;;;;;;0.40;0.40;;;-0.60;99.90;;;;;;5054844;28;20178;-74
2020/12/27 02:56:28;;;;;;;0.50;0.50;;;-0.60;99.90;;;;;;5055603;28;20428;-72
2020/12/27 02:58:57;;;;;;;0.30;0.30;;;-0.50;99.90;;;;;;5055833;28;20633;-75
2020/12/27 03:01:22;;;;;;;0.30;0.30;;;-0.50;99.90;;;;;;5043554;28;20245;-74
2020/12/27 03:03:48;;;;;;;0.30;0.30;;;-0.50;99.90;;;;;;5055648;28;20244;-73
2020/12/27 03:06:14;;;;;;;0.33;0.33;;;-0.60;99.90;;;;;;5055456;28;20177;-74
2020/12/27 03:08:40;;;;;;;0.30;0.30;;;-0.60;99.90;;;;;;5055580;28;20405;-73
2020/12/27 03:11:07;;;;;;;0.30;0.30;;;-0.60;99.90;;;;;;5054216;28;20198;-74
2020/12/27 03:13:33;;;;;;;0.80;0.80;;;-0.60;99.90;;;;;;5055937;28;20173;-74
2020/12/27 03:16:01;;;;;;;0.50;0.50;;;-0.60;99.90;;;;;;5055400;28;20208;-74
2020/12/27 03:18:28;;;;;;;0.30;0.30;;;-0.70;99.90;;;;;;5055530;28;20259;-74
2020/12/27 03:20:54;;;;;;;0.40;0.40;;;-0.70;99.90;;;;;;5052671;28;20208;-74
2020/12/27 03:23:20;;;;;;;0.30;0.30;;;-0.70;99.90;;;;;;5055174;28;20193;-73
2020/12/27 03:25:45;;;;;;;0.40;0.40;;;-0.80;99.90;;;;;;5055560;28;20170;-75
2020/12/27 03:28:12;;;;;;;0.40;0.40;;;-0.80;99.90;;;;;;5058107;28;20653;-76
2020/12/27 03:30:37;;;;;;;0.30;0.30;;;-0.80;99.90;;;;;;5053386;28;20519;-74
2020/12/27 03:33:04;;;;;;;0.30;0.30;;;-0.80;99.90;;;;;;5055072;28;20173;-73
2020/12/27 03:35:29;;;;;;;0.30;0.30;;;-0.80;99.90;;;;;;5055212;28;20169;-74
2020/12/27 03:37:55;;;;;;;0.30;0.30;;;-0.80;99.90;;;;;;5054913;28;20181;-75
2020/12/27 03:40:21;;;;;;;0.30;0.30;;;-0.80;99.90;;;;;;5053846;28;20177;-74
2020/12/27 03:42:47;;;;;;;0.50;0.50;;;-0.80;99.90;;;;;;5054823;28;20907;-74
2020/12/27 03:45:13;;;;;;;0.30;0.30;;;-0.90;99.90;;;;;;5054682;28;20529;-73
2020/12/27 03:47:39;;;;;;;0.40;0.40;;;-0.90;99.90;;;;;;5054879;28;20163;-75
2020/12/27 03:50:05;;;;;;;0.30;0.30;;;-0.90;99.90;;;;;;5053566;28;20174;-74
2020/12/27 03:52:31;;;;;;;0.30;0.30;;;-0.80;99.90;;;;;;5054864;28;20193;-74
2020/12/27 03:54:57;;;;;;;0.40;0.40;;;-0.80;99.90;;;;;;5054356;28;20186;-74
2020/12/27 03:57:22;;;;;;;0.30;0.30;;;-0.70;99.90;;;;;;5054780;28;20660;-74
2020/12/27 03:59:49;;;;;;;0.30;0.30;;;-0.80;99.90;;;;;;5053903;28;20563;-75
2020/12/27 04:02:15;;;;;;;0.40;0.40;;;-0.80;99.90;;;;;;5054542;28;20193;-73
2020/12/27 04:04:40;;;;;;;0.30;0.30;;;-0.70;99.90;;;;;;5054198;28;20204;-72
2020/12/27 04:07:06;;;;;;;0.40;0.40;;;-0.80;99.90;;;;;;5055005;28;20173;-73
2020/12/27 04:09:32;;;;;;;0.40;0.40;;;-0.90;99.90;;;;;;5052706;28;20178;-73
2020/12/27 04:11:58;;;;;;;0.30;0.30;;;-0.90;99.90;;;;;;5052803;28;20732;-75
2020/12/27 04:14:23;;;;;;;0.40;0.40;;;-0.90;99.90;;;;;;5054117;28;20511;-73
2020/12/27 04:16:49;;;;;;;0.40;0.40;;;-0.90;99.90;;;;;;5054075;28;20913;-74
2020/12/27 04:19:14;;;;;;;0.40;0.40;;;-0.90;99.90;;;;;;5053225;28;20184;-74
2020/12/27 04:21:47;;;;;;;0.30;0.30;;;-0.90;99.90;;;;;;5053775;28;20213;-75
2020/12/27 04:24:13;;;;;;;0.40;0.40;;;-0.90;99.90;;;;;;5053898;28;20215;-73
2020/12/27 04:26:38;;;;;;;0.40;0.40;;;-0.90;99.90;;;;;;5052918;28;20188;-74
2020/12/27 04:29:04;;;;;;;0.40;0.40;;;-0.90;99.90;;;;;;5053083;28;20165;-74
2020/12/27 04:31:30;;;;;;;0.40;0.40;;;-0.90;99.90;;;;;;5053809;28;20181;-74
2020/12/27 04:33:56;;;;;;;0.40;0.40;;;-0.90;99.90;;;;;;5053241;28;20178;-76
2020/12/27 04:36:23;;;;;;;0.30;0.30;;;-0.90;99.90;;;;;;5054222;28;20218;-73
2020/12/27 04:38:49;;;;;;;0.40;0.40;;;-0.90;99.90;;;;;;5052118;28;20181;-74
2020/12/27 04:41:16;;;;;;;0.35;0.35;;;-0.90;99.90;;;;;;5053617;28;20185;-72
2020/12/27 04:43:44;;;;;;;0.30;0.20;;;-0.90;99.90;;;;;;5052591;28;20214;-75
2020/12/27 04:46:12;;;;;;;0.30;0.30;;;-0.90;99.90;;;;;;5053709;28;20169;-74
2020/12/27 04:48:39;;;;;;;0.30;0.30;;;-0.90;99.90;;;;;;5052821;28;20178;-74
2020/12/27 04:51:06;;;;;;;0.38;0.38;;;-0.90;99.90;;;;;;5053358;28;20193;-74
2020/12/27 04:53:34;;;;;;;0.30;0.30;;;-0.90;99.90;;;;;;5053503;28;20180;-74
2020/12/27 04:56:02;;;;;;;0.40;0.40;;;-0.80;99.90;;;;;;5053720;28;20552;-74
2020/12/27 04:58:28;;;;;;;0.45;0.45;;;-0.80;99.90;;;;;;5052603;28;20177;-72
2020/12/27 05:00:55;;;;;;;0.40;0.40;;;-0.80;99.90;;;;;;5052947;28;20656;-73
2020/12/27 05:03:20;;;;;;;0.30;0.30;;;-0.80;99.90;;;;;;5053492;28;20615;-72
2020/12/27 05:05:51;;;;;;;0.30;0.30;;;-0.80;99.90;;;;;;5052464;28;20181;-73
2020/12/27 05:08:17;;;;;;;0.30;0.30;;;-0.80;99.90;;;;;;5053486;28;20196;-75
2020/12/27 05:10:44;;;;;;;0.40;0.40;;;-0.80;99.90;;;;;;5052698;28;20184;-74
2020/12/27 05:13:11;;;;;;;0.30;0.30;;;-0.80;99.90;;;;;;5052043;28;20626;-75
2020/12/27 05:15:38;;;;;;;0.30;0.30;;;-0.80;99.90;;;;;;5052831;28;20588;-72
2020/12/27 05:18:07;;;;;;;0.30;0.30;;;-0.90;99.90;;;;;;5051594;28;20231;-73
2020/12/27 05:20:35;;;;;;;0.30;0.30;;;-0.90;99.90;;;;;;5052525;28;20234;-75
2020/12/27 05:23:05;;;;;;;0.40;0.40;;;-0.90;99.90;;;;;;5052835;28;20181;-75
2020/12/27 05:25:33;;;;;;;0.30;0.30;;;-1.00;99.90;;;;;;5053218;28;20589;-75
2020/12/27 05:28:07;;;;;;;1.67;1.58;;;-1.00;99.90;;;;;;5052255;28;20177;-74
2020/12/27 05:30:33;;;;;;;0.40;0.40;;;-1.00;99.90;;;;;;5052875;28;20638;-75
2020/12/27 05:32:59;;;;;;;0.35;0.35;;;-1.00;99.90;;;;;;5052837;28;20169;-74
2020/12/27 05:35:25;;;;;;;0.30;0.30;;;-1.10;99.90;;;;;;5052514;28;20196;-74
2020/12/27 05:37:52;;;;;;;0.30;0.30;;;-1.10;99.90;;;;;;5051586;28;20963;-73
2020/12/27 05:40:18;;;;;;;0.40;0.40;;;-1.10;99.90;;;;;;5052601;28;20408;-75
2020/12/27 05:42:45;;;;;;;0.40;0.40;;;-1.10;99.90;;;;;;5052700;28;20545;-74
2020/12/27 05:45:12;;;;;;;0.30;0.30;;;-1.10;99.90;;;;;;5055217;28;20235;-75
2020/12/27 05:47:40;;;;;;;0.30;0.30;;;-1.10;99.90;;;;;;5057976;28;20201;-74
2020/12/27 05:50:07;;;;;;;0.40;0.40;;;-1.10;99.90;;;;;;5056769;28;20506;-72
2020/12/27 05:52:43;;;;;;;0.40;0.40;;;-1.10;99.90;;;;;;5054614;28;20244;-73
2020/12/27 05:55:15;;;;;;;0.30;0.30;;;-1.20;99.90;;;;;;5055889;28;20196;-73
2020/12/27 05:57:42;;;;;;;0.30;0.30;;;-1.10;99.90;;;;;;5056781;28;20181;-73
2020/12/27 06:00:07;;;;;;;0.40;0.40;;;-1.10;99.90;;;;;;5055231;28;20259;-72
2020/12/27 06:02:43;;;;;;;0.60;0.60;;;-1.10;99.90;;;;;;5056260;28;20621;-73
2020/12/27 06:05:10;;;;;;;0.40;0.40;;;-1.10;99.90;;;;;;5056843;28;20233;-75
2020/12/27 06:07:42;;;;;;;0.40;0.40;;;-1.00;99.90;;;;;;5056812;28;20256;-73
2020/12/27 06:10:08;;;;;;;0.40;0.40;;;-1.00;99.90;;;;;;5036545;28;20285;-75
2020/12/27 06:12:46;;;;;;;0.30;0.30;;;-1.10;99.90;;;;;;5035037;28;20600;-73
2020/12/27 06:15:26;;;;;;;0.40;0.40;;;-1.10;99.90;;;;;;5035459;28;20537;-75
2020/12/27 06:17:52;;;;;;;0.40;0.40;;;-1.10;99.90;;;;;;5038968;28;20166;-72
2020/12/27 06:20:19;;;;;;;0.80;0.80;;;-1.10;99.90;;;;;;5057331;28;20227;-75
2020/12/27 06:22:48;;;;;;;0.43;0.43;;;-1.20;99.90;;;;;;5055327;28;20219;-73
2020/12/27 06:25:15;;;;;;;0.40;0.40;;;-1.20;99.90;;;;;;5036392;28;20200;-73
2020/12/27 06:27:41;;;;;;;8.90;1.77;;;-1.20;99.90;;;;;;5040186;28;20174;-74
2020/12/27 06:30:08;;;;;;;0.30;0.30;;;-1.20;99.90;;;;;;5055793;28;20234;-74
2020/12/27 06:32:41;;;;;;;0.40;0.40;;;-1.20;99.90;;;;;;5056194;28;20545;-74
2020/12/27 06:35:08;;;;;;;0.50;0.50;;;-1.10;99.90;;;;;;5036795;28;20181;-75
2020/12/27 06:37:43;;;;;;;0.30;0.30;;;-1.10;99.90;;;;;;5037632;28;20630;-74
2020/12/27 06:40:09;;;;;;;0.30;0.30;;;-1.10;99.90;;;;;;5055886;28;20671;-74
2020/12/27 06:42:35;;;;;;;2.53;1.52;;;-1.10;99.90;;;;;;5055104;28;20568;-75
2020/12/27 06:45:00;;;;;;;0.40;0.40;;;-1.10;99.90;;;;;;5055022;28;20213;-74
2020/12/27 06:47:49;;;;;;;0.43;0.43;;;-1.10;99.90;;;;;;5055183;28;20178;-76
2020/12/27 06:50:19;;;;;;;1.50;1.40;;;-1.00;99.90;;;;;;5055668;28;20162;-71
2020/12/27 06:52:46;;;;;;;0.50;0.50;;;-1.00;99.90;;;;;;5055870;28;20185;-73
2020/12/27 06:55:11;;;;;;;0.30;0.30;;;-1.00;99.90;;;;;;5055542;28;20197;-74
2020/12/27 06:57:40;;;;;;;0.30;0.30;;;-0.90;99.90;;;;;;5055097;28;20212;-72
2020/12/27 07:00:19;;;;;;;0.50;0.50;;;-0.90;99.90;;;;;;5035651;28;20451;-73
2020/12/27 07:02:45;;;;;;;0.30;0.30;;;-0.90;99.90;;;;;;5036150;28;20263;-74
2020/12/27 07:05:29;;;;;;;0.30;0.30;;;-0.90;99.90;;;;;;5055637;28;20193;-73
2020/12/27 07:07:54;;;;;;;0.40;0.40;;;-0.90;99.90;;;;;;5053335;28;20175;-72
2020/12/27 07:10:23;;;;;;;0.33;0.33;;;-0.90;99.90;;;;;;5054905;28;20189;-73
2020/12/27 07:12:49;;;;;;;0.40;0.40;;;-0.90;99.90;;;;;;5054655;28;20784;-72
2020/12/27 07:15:15;;;;;;;0.50;0.50;;;-0.80;99.90;;;;;;5055715;28;20244;-74
2020/12/27 07:17:42;;;;;;;0.40;0.40;;;-0.80;99.90;;;;;;5054395;28;20928;-74
2020/12/27 07:20:16;;;;;;;0.40;0.40;;;-0.80;99.90;;;;;;5054809;28;20170;-74
2020/12/27 07:22:43;;;;;;;0.40;0.40;;;-0.90;99.90;;;;;;5051062;28;20189;-73
2020/12/27 07:25:12;;;;;;;0.30;0.30;;;-0.80;99.90;;;;;;5055469;28;20205;-73
2020/12/27 07:27:42;;;;;;;0.40;0.40;;;-0.80;99.90;;;;;;5053728;28;20180;-72
2020/12/27 07:30:09;;;;;;;0.30;0.30;;;-0.70;99.90;;;;;;5054539;28;20557;-74
2020/12/27 07:32:44;;;;;;;0.55;0.55;;;-0.70;99.90;;;;;;5054414;28;20618;-72
2020/12/27 07:35:10;;;;;;;1.77;1.67;;;-0.70;99.90;;;;;;5054797;28;20178;-72
2020/12/27 07:37:37;;;;;;;1.75;1.45;;;-0.60;99.90;;;;;;5054070;28;20182;-73
2020/12/27 07:40:05;;;;;;;0.30;0.30;;;-0.60;99.90;;;;;;5051484;28;20193;-72
2020/12/27 07:42:32;;;;;;;0.50;0.50;;;-0.50;99.90;;;;;;5054272;28;20193;-72
2020/12/27 07:45:10;;;;;;;0.50;0.50;;;-0.50;99.90;;;;;;5054896;28;20612;-73
2020/12/27 07:47:39;;;;;;;0.40;0.40;;;-0.50;99.90;;;;;;5054374;28;20255;-73
2020/12/27 07:50:10;;;;;;;0.30;0.30;;;-0.40;99.90;;;;;;5053389;28;20942;-74
2020/12/27 07:52:51;;;;;;;0.30;0.30;;;-0.40;99.90;;;;;;5052928;28;20787;-73
2020/12/27 07:55:25;;;;;;;0.30;0.30;;;-0.40;99.90;;;;;;5054861;28;20173;-74
2020/12/27 07:57:51;;;;;;;0.40;0.40;;;-0.40;99.90;;;;;;5053921;28;20593;-73
2020/12/27 08:00:22;;;;;;;0.35;0.35;;;-0.30;99.90;;;;;;5054216;28;20212;-73
2020/12/27 08:02:48;;;;;;;0.30;0.30;;;-0.30;99.90;;;;;;5055122;28;20534;-73
2020/12/27 08:05:14;;;;;;;0.40;0.40;;;-0.30;99.90;;;;;;5060699;28;20205;-73
2020/12/27 08:07:40;;;;;;;0.40;0.40;;;-0.20;99.90;;;;;;5059612;28;20181;-73
2020/12/27 08:10:24;;;;;;;1.70;0.97;;;-0.10;99.90;;;;;;5055596;28;20650;-73
2020/12/27 08:12:58;;;;;;;0.30;0.30;;;-0.10;99.90;;;;;;5054266;28;20191;-72
2020/12/27 08:15:26;;;;;;;0.30;0.30;;;0.00;99.90;;;;;;5053343;28;20170;-74
2020/12/27 08:17:55;;;;;;;0.43;0.43;;;0.00;99.90;;;;;;5053898;28;20347;-72
2020/12/27 08:20:22;;;;;;;0.30;0.30;;;0.10;99.90;;;;;;5053490;28;20514;-73
2020/12/27 08:23:04;;;;;;;0.35;0.35;;;0.20;99.90;;;;;;5052801;28;20279;-75
2020/12/27 08:25:30;;;;;;;0.30;0.30;;;0.20;99.90;;;;;;5046670;28;20169;-75
2020/12/27 08:27:58;;;;;;;0.40;0.40;;;0.20;99.90;;;;;;5054246;28;20245;-76
2020/12/27 08:30:25;;;;;;;0.40;0.40;;;0.30;99.90;;;;;;5053394;28;20172;-75
2020/12/27 08:33:14;;;;;;;0.50;0.50;;;0.30;99.90;;;;;;5052095;28;20194;-75
2020/12/27 08:35:43;;;;;;;0.40;0.40;;;0.30;99.90;;;;;;5032800;28;20185;-74
2020/12/27 08:38:12;;;;;;;0.30;0.30;;;0.40;99.90;;;;;;5042026;28;20209;-72
2020/12/27 08:40:43;;;;;;;0.30;0.30;;;0.40;99.90;;;;;;5052833;28;20185;-75
2020/12/27 08:43:21;;;;;;;0.30;0.30;;;0.50;99.90;;;;;;5052432;28;20184;-74
2020/12/27 08:45:58;;;;;;;0.40;0.40;;;0.40;99.90;;;;;;5053156;28;20181;-74
2020/12/27 08:49:10;;;;;;;0.30;0.30;;;0.50;99.90;;;;;;5051937;28;20268;-75
2020/12/27 08:51:39;;;;;;;0.30;0.30;;;0.60;99.90;;;;;;5029595;28;20205;-73
2020/12/27 08:54:08;;;;;;;1.23;0.80;;;0.70;99.90;;;;;;5049076;28;20169;-73
2020/12/27 08:56:35;;;;;;;0.30;0.30;;;0.70;99.90;;;;;;5053863;28;20686;-74
2020/12/27 08:59:00;;;;;;;1.02;1.02;;;0.80;99.90;;;;;;5052003;28;20536;-73
2020/12/27 09:01:28;;;;;;;0.50;0.50;;;0.80;99.90;;;;;;5053078;28;20243;-74
2020/12/27 09:03:54;;;;;;;0.30;0.20;;;0.90;99.90;;;;;;5050929;28;20205;-75
2020/12/27 09:06:20;;;;;;;0.30;0.30;;;1.00;99.90;;;;;;5053452;28;20209;-75
2020/12/27 09:08:46;;;;;;;0.33;0.33;;;1.00;99.90;;;;;;5053329;28;20200;-74
2020/12/27 09:11:12;;;;;;;0.30;0.30;;;1.00;99.90;;;;;;5052039;28;20243;-73
2020/12/27 09:13:39;;;;;;;0.30;0.30;;;1.10;99.90;;;;;;5053169;28;20181;-73
2020/12/27 09:16:05;;;;;;;0.40;0.40;;;1.10;99.90;;;;;;5052920;28;20173;-71
2020/12/27 09:18:33;;;;;;;0.30;0.30;;;1.10;99.90;;;;;;5053029;28;20223;-72
2020/12/27 09:21:01;;;;;;;0.40;0.40;;;1.10;99.90;;;;;;5052110;28;20204;-70
2020/12/27 09:23:26;;;;;;;0.50;0.50;;;1.10;99.90;;;;;;5052012;28;20491;-72
2020/12/27 09:26:15;;;;;;;0.40;0.40;;;1.10;99.90;;;;;;5053048;28;20169;-71
2020/12/27 09:28:41;;;;;;;0.77;0.77;;;1.10;99.90;;;;;;5052758;28;20220;-72
2020/12/27 09:31:09;;;;;;;0.30;0.30;;;1.20;99.90;;;;;;5034341;28;20212;-71
2020/12/27 09:33:37;;;;;;;0.30;0.30;;;1.20;99.90;;;;;;5048921;28;20190;-72
2020/12/27 09:36:07;;;;;;;0.30;0.30;;;1.30;99.90;;;;;;5052719;28;20179;-72
2020/12/27 09:38:35;;;;;;;0.30;0.30;;;1.40;99.90;;;;;;5035051;28;20584;-71
2020/12/27 09:41:08;;;;;;;0.30;0.20;;;1.50;99.90;;;;;;5051665;28;20208;-72
2020/12/27 09:43:53;;;;;;;0.30;0.30;;;1.60;99.90;;;;;;5052770;28;20201;-70
2020/12/27 09:46:38;;;;;;;0.30;0.30;;;1.60;99.90;;;;;;5052925;28;20162;-71
2020/12/27 09:49:20;;;;;;;0.30;0.30;;;1.70;99.90;;;;;;5050637;28;20177;-70
2020/12/27 09:51:46;;;;;;;1.13;1.13;;;1.80;99.90;;;;;;5052802;28;20602;-71
2020/12/27 09:54:12;;;;;;;0.52;0.52;;;2.00;99.90;;;;;;5052684;28;20612;-72
2020/12/27 09:56:44;;;;;;;0.50;0.50;;;2.10;99.90;;;;;;5052707;28;20189;-70
2020/12/27 09:59:10;;;;;;;0.30;0.30;;;2.20;99.90;;;;;;5051666;28;20235;-70
2020/12/27 10:01:36;;;;;;;0.68;0.68;;;2.40;99.90;;;;;;5052237;28;20680;-73
2020/12/27 10:04:02;;;;;;;0.52;0.52;;;2.50;99.90;;;;;;5052837;28;20212;-73
2020/12/27 10:06:30;;;;;;;0.35;0.35;;;2.70;99.90;;;;;;5053024;28;20223;-71
2020/12/27 10:08:56;;;;;;;0.30;0.20;;;2.80;99.90;;;;;;5051542;28;20570;-73
2020/12/27 10:11:22;;;;;;;0.30;0.30;;;3.00;99.90;;;;;;5053273;28;20300;-72
2020/12/27 10:13:47;;;;;;;0.33;0.33;;;3.10;99.90;;;;;;5053282;28;20443;-73
2020/12/27 10:16:13;;;;;;;0.40;0.40;;;3.20;99.70;;;;;;5053635;28;20169;-71
2020/12/27 10:18:39;;;;;;;0.30;0.30;;;3.40;98.80;;;;;;5052987;28;20189;-74
2020/12/27 10:21:07;;;;;;;0.30;0.30;;;3.40;98.60;;;;;;5052334;28;20197;-72
2020/12/27 10:23:33;;;;;;;0.32;0.32;;;3.50;98.10;;;;;;5052125;28;20632;-71
2020/12/27 10:25:59;;;;;;;0.50;0.50;;;3.50;97.80;;;;;;5052457;28;20165;-72
2020/12/27 10:28:25;;;;;;;0.50;0.50;;;3.60;97.20;;;;;;5051487;28;20506;-70
2020/12/27 10:30:50;;;;;;;0.40;0.40;;;3.50;97.70;;;;;;5053016;28;20184;-71
2020/12/27 10:33:16;;;;;;;0.30;0.30;;;3.40;97.80;;;;;;5055961;28;20256;-73
2020/12/27 10:35:42;;;;;;;0.73;0.73;;;3.30;98.20;;;;;;5056304;28;20169;-71
2020/12/27 10:38:08;;;;;;;0.30;0.30;;;3.20;98.50;;;;;;5055420;28;20231;-70
2020/12/27 10:40:37;;;;;;;0.30;0.30;;;3.10;98.60;;;;;;5046635;28;20178;-70
2020/12/27 10:43:03;;;;;;;0.40;0.40;;;2.90;98.70;;;;;;5053115;28;20181;-71
2020/12/27 10:45:29;;;;;;;0.30;0.30;;;2.80;98.50;;;;;;5055857;28;20268;-70
2020/12/27 10:47:54;;;;;;;0.30;0.30;;;2.70;98.90;;;;;;5053992;28;20174;-71
2020/12/27 10:50:20;;;;;;;0.40;0.40;;;2.60;99.10;;;;;;5055255;28;20169;-71
2020/12/27 10:52:45;;;;;;;0.30;0.30;;;2.60;99.60;;;;;;5055539;28;20547;-70
2020/12/27 10:55:11;;;;;;;0.30;0.30;;;2.60;99.90;;;;;;5055971;28;20700;-71
2020/12/27 10:57:37;;;;;;;0.30;0.30;;;2.50;99.90;;;;;;5054905;28;20185;-69
2020/12/27 11:00:03;;;;;;;0.30;0.30;;;2.50;99.90;;;;;;5055351;28;20181;-70
2020/12/27 11:02:29;;;;;;;0.43;0.43;;;2.50;99.90;;;;;;5054041;28;20690;-70
2020/12/27 11:04:55;;;;;;;0.40;0.40;;;2.50;99.90;;;;;;5055664;28;20224;-71
2020/12/27 11:07:20;;;;;;;0.30;0.30;;;2.50;99.90;;;;;;5054663;28;20197;-68
2020/12/27 11:09:46;;;;;;;0.40;0.40;;;2.50;99.90;;;;;;5055474;28;20525;-70
2020/12/27 11:12:12;;;;;;;0.50;0.50;;;2.50;99.90;;;;;;5053876;28;20192;-72
2020/12/27 11:14:37;;;;;;;0.33;0.33;;;2.60;99.90;;;;;;5055765;28;20176;-70
2020/12/27 11:17:03;;;;;;;0.30;0.20;;;2.60;99.90;;;;;;5046381;28;20201;-69
2020/12/27 11:19:30;;;;;;;0.30;0.30;;;2.70;99.90;;;;;;5055191;28;20173;-70
2020/12/27 11:21:55;;;;;;;0.30;0.30;;;2.70;99.90;;;;;;5054694;28;20189;-70
2020/12/27 11:24:21;;;;;;;0.30;0.30;;;2.80;99.90;;;;;;5055402;28;20600;-70
2020/12/27 11:26:46;;;;;;;0.33;0.33;;;2.80;99.90;;;;;;5054233;28;20170;-70
2020/12/27 11:29:12;;;;;;;0.30;0.30;;;2.80;99.90;;;;;;5055314;28;20216;-69
2020/12/27 11:31:38;;;;;;;0.30;0.30;;;2.90;99.90;;;;;;5053220;28;20190;-70
2020/12/27 11:34:04;;;;;;;0.40;0.40;;;2.90;99.90;;;;;;5055074;28;20180;-70
2020/12/27 11:36:29;;;;;;;0.30;0.30;;;2.90;99.90;;;;;;5053554;28;20180;-70
2020/12/27 11:38:55;;;;;;;0.30;0.30;;;2.90;99.90;;;;;;5055017;28;20411;-71
2020/12/27 11:41:21;;;;;;;0.40;0.40;;;3.00;99.90;;;;;;5051676;28;20211;-71
2020/12/27 11:43:46;;;;;;;0.60;0.60;;;3.00;99.90;;;;;;5051881;28;20193;-71
2020/12/27 11:46:12;;;;;;;0.30;0.30;;;2.90;99.90;;;;;;5053276;28;20222;-70
2020/12/27 11:48:38;;;;;;;0.30;0.30;;;2.90;99.90;;;;;;5053949;28;20157;-70
2020/12/27 11:51:04;;;;;;;0.30;0.30;;;2.90;99.90;;;;;;5052772;28;20593;-71
2020/12/27 11:53:29;;;;;;;0.30;0.30;;;2.90;99.90;;;;;;5052129;28;20284;-70
2020/12/27 11:55:55;;;;;;;0.30;0.30;;;2.90;99.90;;;;;;5053478;28;20173;-72
2020/12/27 11:58:21;;;;;;;0.30;0.30;;;2.80;99.90;;;;;;5054581;28;20529;-74
2020/12/27 12:00:47;;;;;;;0.30;0.30;;;2.90;99.90;;;;;;5053838;28;20533;-77
2020/12/27 12:03:12;;;;;;;0.40;0.40;;;2.90;99.90;;;;;;5053484;28;20184;-73
2020/12/27 12:05:38;;;;;;;1.03;1.03;;;2.90;99.90;;;;;;5054051;28;20420;-71
2020/12/27 12:08:04;;;;;;;0.30;0.30;;;3.00;99.90;;;;;;5055024;28;20679;-72
2020/12/27 12:10:30;;;;;;;0.40;0.40;;;3.00;99.90;;;;;;5052429;28;20178;-72
2020/12/27 12:12:55;;;;;;;0.38;0.38;;;3.00;99.90;;;;;;5052284;28;20189;-75
2020/12/27 12:15:21;;;;;;;0.30;0.20;;;3.00;99.90;;;;;;5052898;28;20221;-74
2020/12/27 12:17:47;;;;;;;0.30;0.30;;;3.00;99.90;;;;;;5054167;28;20173;-74
2020/12/27 12:22:56;;;;;;;0.30;0.30;;;3.10;99.90;;;;;;5047232;28;20252;-73
2020/12/27 12:25:22;;;;;;;0.40;0.40;;;3.10;99.90;;;;;;5046427;28;20599;-71
2020/12/27 12:27:48;;;;;;;0.30;0.30;;;3.10;99.90;;;;;;5053768;28;20200;-72
2020/12/27 12:30:13;;;;;;;0.30;0.30;;;3.10;99.90;;;;;;5053173;28;20185;-72
2020/12/27 12:32:39;;;;;;;0.30;0.30;;;3.10;99.90;;;;;;5052940;28;20213;-71
2020/12/27 12:35:05;;;;;;;0.40;0.40;;;3.10;99.90;;;;;;5053604;28;20707;-72
2020/12/27 12:37:30;;;;;;;0.30;0.30;;;3.10;99.90;;;;;;5052997;28;20578;-71
2020/12/27 12:39:56;;;;;;;0.30;0.30;;;3.10;99.90;;;;;;5053322;28;20178;-72
2020/12/27 12:42:22;;;;;;;0.30;0.30;;;3.10;99.90;;;;;;5052458;28;20280;-72
2020/12/27 12:44:48;;;;;;;0.30;0.30;;;3.10;99.90;;;;;;5051948;28;20204;-71
2020/12/27 12:47:13;;;;;;;0.40;0.40;;;3.10;99.90;;;;;;5052953;28;20180;-72
2020/12/27 12:49:39;;;;;;;1.17;1.17;;;3.10;99.90;;;;;;5053357;28;20181;-71
2020/12/27 12:52:05;;;;;;;0.70;0.70;;;3.10;99.90;;;;;;5052955;28;20683;-72
2020/12/27 12:54:30;;;;;;;0.30;0.30;;;3.10;99.90;;;;;;5052950;28;20675;-73